sensor_id;sensor_type;location;lat;lon;timestamp;temperature;humidity
14053;DHT22;7101;51.600;7.310;2023-07-29T00:00:23;19.70;99.90
14053;DHT22;7101;51.600;7.310;2023-07-29T00:02:50;19.50;99.90
14053;DHT22;7101;51.600;7.310;2023-07-29T00:05:19;19.40;99.90
14053;DHT22;7101;51.600;7.310;2023-07-29T00:07:46;19.40;99.90
14053;DHT22;7101;51.600;7.310;2023-07-29T00:10:13;19.30;99.90
14053;DHT22;7101;51.600;7.310;2023-07-29T00:12:40;19.30;99.90
14053;DHT22;7101;51.600;7.310;2023-07-29T00:15:09;19.20;99.90
14053;DHT22;7101;51.600;7.310;2023-07-29T00:17:37;19.20;99.90
14053;DHT22;7101;51.600;7.310;2023-07-29T00:20:06;19.10;99.90
14053;DHT22;7101;51.600;7.310;2023-07-29T00:22:34;19.10;99.90
14053;DHT22;7101;51.600;7.310;2023-07-29T00:25:01;19.00;99.90
14053;DHT22;7101;51.600;7.310;2023-07-29T00:27:28;18.90;99.90
14053;DHT22;7101;51.600;7.310;2023-07-29T00:29:55;18.90;99.90
14053;DHT22;7101;51.600;7.310;2023-07-29T00:32:23;18.90;99.90
14053;DHT22;7101;51.600;7.310;2023-07-29T00:34:50;18.90;99.90
14053;DHT22;7101;51.600;7.310;2023-07-29T00:37:17;18.90;99.90
14053;DHT22;7101;51.600;7.310;2023-07-29T00:39:44;18.90;99.90
14053;DHT22;7101;51.600;7.310;2023-07-29T00:42:11;18.90;99.90
14053;DHT22;7101;51.600;7.310;2023-07-29T00:44:38;18.90;99.90
14053;DHT22;7101;51.600;7.310;2023-07-29T00:47:06;18.80;99.90
14053;DHT22;7101;51.600;7.310;2023-07-29T00:49:35;18.80;99.90
14053;DHT22;7101;51.600;7.310;2023-07-29T00:52:03;18.80;99.90
14053;DHT22;7101;51.600;7.310;2023-07-29T00:54:30;18.80;99.90
14053;DHT22;7101;51.600;7.310;2023-07-29T00:56:57;18.70;99.90
14053;DHT22;7101;51.600;7.310;2023-07-29T00:59:24;18.80;99.90
14053;DHT22;7101;51.600;7.310;2023-07-29T01:01:53;18.80;99.90
14053;DHT22;7101;51.600;7.310;2023-07-29T01:04:23;18.90;99.90
14053;DHT22;7101;51.600;7.310;2023-07-29T01:06:58;18.90;99.90
14053;DHT22;7101;51.600;7.310;2023-07-29T01:09:33;18.90;99.90
14053;DHT22;7101;51.600;7.310;2023-07-29T01:12:10;18.80;99.90
14053;DHT22;7101;51.600;7.310;2023-07-29T01:14:41;18.80;99.90
14053;DHT22;7101;51.600;7.310;2023-07-29T01:17:15;18.70;99.90
14053;DHT22;7101;51.600;7.310;2023-07-29T01:19:58;18.60;99.90
14053;DHT22;7101;51.600;7.310;2023-07-29T01:22:28;18.60;99.90
14053;DHT22;7101;51.600;7.310;2023-07-29T01:24:58;18.60;99.90
14053;DHT22;7101;51.600;7.310;2023-07-29T01:27:25;18.60;99.90
14053;DHT22;7101;51.600;7.310;2023-07-29T01:29:52;18.60;99.90
14053;DHT22;7101;51.600;7.310;2023-07-29T01:32:24;18.60;99.90
14053;DHT22;7101;51.600;7.310;2023-07-29T01:34:56;18.60;99.90
14053;DHT22;7101;51.600;7.310;2023-07-29T01:37:44;18.60;99.90
14053;DHT22;7101;51.600;7.310;2023-07-29T01:40:16;18.50;99.90
14053;DHT22;7101;51.600;7.310;2023-07-29T01:42:45;18.50;99.90
14053;DHT22;7101;51.600;7.310;2023-07-29T01:45:13;18.50;99.90
14053;DHT22;7101;51.600;7.310;2023-07-29T01:47:40;18.60;99.90
14053;DHT22;7101;51.600;7.310;2023-07-29T01:50:08;18.60;99.90
14053;DHT22;7101;51.600;7.310;2023-07-29T01:52:35;18.60;99.90
14053;DHT22;7101;51.600;7.310;2023-07-29T01:55:02;18.60;99.90
14053;DHT22;7101;51.600;7.310;2023-07-29T01:57:30;18.70;99.90
14053;DHT22;7101;51.600;7.310;2023-07-29T01:59:57;18.70;99.90
14053;DHT22;7101;51.600;7.310;2023-07-29T02:02:24;18.80;99.90
14053;DHT22;7101;51.600;7.310;2023-07-29T02:04:51;18.90;99.90
14053;DHT22;7101;51.600;7.310;2023-07-29T02:07:18;18.90;99.90
14053;DHT22;7101;51.600;7.310;2023-07-29T02:09:45;18.90;99.90
14053;DHT22;7101;51.600;7.310;2023-07-29T02:12:12;18.90;99.90
14053;DHT22;7101;51.600;7.310;2023-07-29T02:14:40;18.90;99.90
14053;DHT22;7101;51.600;7.310;2023-07-29T02:17:08;19.00;99.90
14053;DHT22;7101;51.600;7.310;2023-07-29T02:19:35;18.90;99.90
14053;DHT22;7101;51.600;7.310;2023-07-29T02:22:02;18.90;99.90
14053;DHT22;7101;51.600;7.310;2023-07-29T02:24:29;18.90;99.90
14053;DHT22;7101;51.600;7.310;2023-07-29T02:26:56;18.90;99.90
14053;DHT22;7101;51.600;7.310;2023-07-29T02:29:22;19.00;99.90
14053;DHT22;7101;51.600;7.310;2023-07-29T02:31:51;19.00;99.90
14053;DHT22;7101;51.600;7.310;2023-07-29T02:34:19;19.10;99.90
14053;DHT22;7101;51.600;7.310;2023-07-29T02:36:46;19.00;99.90
14053;DHT22;7101;51.600;7.310;2023-07-29T02:39:15;19.10;99.90
14053;DHT22;7101;51.600;7.310;2023-07-29T02:41:42;19.10;99.90
14053;DHT22;7101;51.600;7.310;2023-07-29T02:44:18;19.10;99.90
14053;DHT22;7101;51.600;7.310;2023-07-29T02:46:45;19.10;99.90
14053;DHT22;7101;51.600;7.310;2023-07-29T02:49:14;19.10;99.90
14053;DHT22;7101;51.600;7.310;2023-07-29T02:51:43;19.10;99.90
14053;DHT22;7101;51.600;7.310;2023-07-29T02:54:16;19.00;99.90
14053;DHT22;7101;51.600;7.310;2023-07-29T02:56:43;19.00;99.90
14053;DHT22;7101;51.600;7.310;2023-07-29T02:59:10;19.10;99.90
14053;DHT22;7101;51.600;7.310;2023-07-29T03:01:40;19.10;99.90
14053;DHT22;7101;51.600;7.310;2023-07-29T03:04:08;19.10;99.90
14053;DHT22;7101;51.600;7.310;2023-07-29T03:06:40;19.10;99.90
14053;DHT22;7101;51.600;7.310;2023-07-29T03:09:08;19.10;99.90
14053;DHT22;7101;51.600;7.310;2023-07-29T03:11:35;19.20;99.90
14053;DHT22;7101;51.600;7.310;2023-07-29T03:14:02;19.10;99.90
14053;DHT22;7101;51.600;7.310;2023-07-29T03:16:29;19.20;99.90
14053;DHT22;7101;51.600;7.310;2023-07-29T03:18:56;19.30;99.90
14053;DHT22;7101;51.600;7.310;2023-07-29T03:21:23;19.30;99.90
14053;DHT22;7101;51.600;7.310;2023-07-29T03:23:52;19.40;99.90
14053;DHT22;7101;51.600;7.310;2023-07-29T03:26:19;19.40;99.90
14053;DHT22;7101;51.600;7.310;2023-07-29T03:28:46;19.40;99.90
14053;DHT22;7101;51.600;7.310;2023-07-29T03:31:13;19.50;99.90
14053;DHT22;7101;51.600;7.310;2023-07-29T03:33:39;19.60;99.90
14053;DHT22;7101;51.600;7.310;2023-07-29T03:36:06;19.50;99.90
14053;DHT22;7101;51.600;7.310;2023-07-29T03:38:34;19.60;99.90
14053;DHT22;7101;51.600;7.310;2023-07-29T03:41:07;19.50;99.90
14053;DHT22;7101;51.600;7.310;2023-07-29T03:43:34;19.50;99.90
14053;DHT22;7101;51.600;7.310;2023-07-29T03:46:01;19.50;99.90
14053;DHT22;7101;51.600;7.310;2023-07-29T03:48:28;19.50;99.90
14053;DHT22;7101;51.600;7.310;2023-07-29T03:50:56;19.50;99.90
14053;DHT22;7101;51.600;7.310;2023-07-29T03:53:23;19.50;99.90
14053;DHT22;7101;51.600;7.310;2023-07-29T03:55:51;19.50;99.90
14053;DHT22;7101;51.600;7.310;2023-07-29T03:58:19;19.40;99.90
14053;DHT22;7101;51.600;7.310;2023-07-29T04:00:46;19.40;99.90
14053;DHT22;7101;51.600;7.310;2023-07-29T04:03:13;19.40;99.90
14053;DHT22;7101;51.600;7.310;2023-07-29T04:05:41;19.40;99.90
14053;DHT22;7101;51.600;7.310;2023-07-29T04:08:08;19.40;99.90
14053;DHT22;7101;51.600;7.310;2023-07-29T04:10:35;19.50;99.90
14053;DHT22;7101;51.600;7.310;2023-07-29T04:13:03;19.50;99.90
14053;DHT22;7101;51.600;7.310;2023-07-29T04:15:32;19.50;99.90
14053;DHT22;7101;51.600;7.310;2023-07-29T04:17:59;19.60;99.90
14053;DHT22;7101;51.600;7.310;2023-07-29T04:20:25;19.60;99.90
14053;DHT22;7101;51.600;7.310;2023-07-29T04:22:53;19.60;99.90
14053;DHT22;7101;51.600;7.310;2023-07-29T04:25:19;19.60;99.90
14053;DHT22;7101;51.600;7.310;2023-07-29T04:27:47;19.60;99.90
14053;DHT22;7101;51.600;7.310;2023-07-29T04:30:14;19.60;99.90
14053;DHT22;7101;51.600;7.310;2023-07-29T04:32:42;19.60;99.90
14053;DHT22;7101;51.600;7.310;2023-07-29T04:35:10;19.60;99.90
14053;DHT22;7101;51.600;7.310;2023-07-29T04:37:37;19.60;99.90
14053;DHT22;7101;51.600;7.310;2023-07-29T04:40:05;19.60;99.90
14053;DHT22;7101;51.600;7.310;2023-07-29T04:42:32;19.60;99.90
14053;DHT22;7101;51.600;7.310;2023-07-29T04:44:59;19.60;99.90
14053;DHT22;7101;51.600;7.310;2023-07-29T04:47:26;19.60;99.90
14053;DHT22;7101;51.600;7.310;2023-07-29T04:49:54;19.70;99.90
14053;DHT22;7101;51.600;7.310;2023-07-29T04:52:21;19.70;99.90
14053;DHT22;7101;51.600;7.310;2023-07-29T04:54:48;19.80;99.90
14053;DHT22;7101;51.600;7.310;2023-07-29T04:57:17;19.80;99.90
14053;DHT22;7101;51.600;7.310;2023-07-29T04:59:43;19.80;99.90
14053;DHT22;7101;51.600;7.310;2023-07-29T05:02:10;19.90;99.90
14053;DHT22;7101;51.600;7.310;2023-07-29T05:04:38;19.90;99.90
14053;DHT22;7101;51.600;7.310;2023-07-29T05:07:06;19.90;99.90
14053;DHT22;7101;51.600;7.310;2023-07-29T05:09:36;19.80;99.90
14053;DHT22;7101;51.600;7.310;2023-07-29T05:12:04;19.80;99.90
14053;DHT22;7101;51.600;7.310;2023-07-29T05:14:31;19.90;99.90
14053;DHT22;7101;51.600;7.310;2023-07-29T05:16:58;19.90;99.90
14053;DHT22;7101;51.600;7.310;2023-07-29T05:19:26;19.90;99.90
14053;DHT22;7101;51.600;7.310;2023-07-29T05:21:53;19.90;99.90
14053;DHT22;7101;51.600;7.310;2023-07-29T05:24:21;19.90;99.90
14053;DHT22;7101;51.600;7.310;2023-07-29T05:26:48;19.90;99.90
14053;DHT22;7101;51.600;7.310;2023-07-29T05:29:16;19.90;99.90
14053;DHT22;7101;51.600;7.310;2023-07-29T05:31:43;20.00;99.90
14053;DHT22;7101;51.600;7.310;2023-07-29T05:34:09;20.10;99.90
14053;DHT22;7101;51.600;7.310;2023-07-29T05:36:36;20.20;99.90
14053;DHT22;7101;51.600;7.310;2023-07-29T05:39:04;20.40;99.90
14053;DHT22;7101;51.600;7.310;2023-07-29T05:41:34;20.70;99.90
14053;DHT22;7101;51.600;7.310;2023-07-29T05:44:01;20.90;99.90
14053;DHT22;7101;51.600;7.310;2023-07-29T05:46:28;21.20;99.90
14053;DHT22;7101;51.600;7.310;2023-07-29T05:48:55;21.40;99.90
14053;DHT22;7101;51.600;7.310;2023-07-29T05:51:22;21.50;99.90
14053;DHT22;7101;51.600;7.310;2023-07-29T05:53:49;21.70;99.90
14053;DHT22;7101;51.600;7.310;2023-07-29T05:56:16;21.80;99.90
14053;DHT22;7101;51.600;7.310;2023-07-29T05:58:45;21.80;99.90
14053;DHT22;7101;51.600;7.310;2023-07-29T06:01:13;21.70;99.90
14053;DHT22;7101;51.600;7.310;2023-07-29T06:03:40;21.50;99.90
14053;DHT22;7101;51.600;7.310;2023-07-29T06:06:07;21.20;99.90
14053;DHT22;7101;51.600;7.310;2023-07-29T06:08:34;21.00;99.90
14053;DHT22;7101;51.600;7.310;2023-07-29T06:11:01;20.90;99.90
14053;DHT22;7101;51.600;7.310;2023-07-29T06:13:29;20.80;99.90
14053;DHT22;7101;51.600;7.310;2023-07-29T06:15:58;20.70;99.90
14053;DHT22;7101;51.600;7.310;2023-07-29T06:18:25;20.50;99.90
14053;DHT22;7101;51.600;7.310;2023-07-29T06:20:52;20.40;99.90
14053;DHT22;7101;51.600;7.310;2023-07-29T06:23:19;20.40;99.90
14053;DHT22;7101;51.600;7.310;2023-07-29T06:25:46;20.30;99.90
14053;DHT22;7101;51.600;7.310;2023-07-29T06:28:13;20.20;99.90
14053;DHT22;7101;51.600;7.310;2023-07-29T06:30:41;20.20;99.90
14053;DHT22;7101;51.600;7.310;2023-07-29T06:33:09;20.20;99.90
14053;DHT22;7101;51.600;7.310;2023-07-29T06:35:37;20.20;99.90
14053;DHT22;7101;51.600;7.310;2023-07-29T06:38:03;20.20;99.90
14053;DHT22;7101;51.600;7.310;2023-07-29T06:40:30;20.20;99.90
14053;DHT22;7101;51.600;7.310;2023-07-29T06:42:57;20.30;99.90
14053;DHT22;7101;51.600;7.310;2023-07-29T06:45:24;20.20;99.90
14053;DHT22;7101;51.600;7.310;2023-07-29T06:47:52;20.30;99.90
14053;DHT22;7101;51.600;7.310;2023-07-29T06:50:20;20.40;99.90
14053;DHT22;7101;51.600;7.310;2023-07-29T06:52:47;20.40;99.90
14053;DHT22;7101;51.600;7.310;2023-07-29T06:55:15;20.50;99.90
14053;DHT22;7101;51.600;7.310;2023-07-29T06:57:41;20.60;99.90
14053;DHT22;7101;51.600;7.310;2023-07-29T07:00:09;20.70;99.90
14053;DHT22;7101;51.600;7.310;2023-07-29T07:02:36;20.80;99.90
14053;DHT22;7101;51.600;7.310;2023-07-29T07:05:03;21.00;99.90
14053;DHT22;7101;51.600;7.310;2023-07-29T07:07:31;21.10;99.90
14053;DHT22;7101;51.600;7.310;2023-07-29T07:09:58;21.00;99.90
14053;DHT22;7101;51.600;7.310;2023-07-29T07:12:26;20.90;99.90
14053;DHT22;7101;51.600;7.310;2023-07-29T07:14:53;20.90;99.90
14053;DHT22;7101;51.600;7.310;2023-07-29T07:17:19;20.90;99.90
14053;DHT22;7101;51.600;7.310;2023-07-29T07:19:46;21.00;99.90
14053;DHT22;7101;51.600;7.310;2023-07-29T07:22:13;20.90;99.90
14053;DHT22;7101;51.600;7.310;2023-07-29T07:24:41;20.90;99.90
14053;DHT22;7101;51.600;7.310;2023-07-29T07:27:08;21.20;99.90
14053;DHT22;7101;51.600;7.310;2023-07-29T07:29:35;21.90;99.90
14053;DHT22;7101;51.600;7.310;2023-07-29T07:32:03;22.60;99.90
14053;DHT22;7101;51.600;7.310;2023-07-29T07:34:30;22.90;99.90
14053;DHT22;7101;51.600;7.310;2023-07-29T07:36:59;23.20;99.90
14053;DHT22;7101;51.600;7.310;2023-07-29T07:39:26;24.20;99.90
14053;DHT22;7101;51.600;7.310;2023-07-29T07:41:54;24.70;99.90
14053;DHT22;7101;51.600;7.310;2023-07-29T07:44:21;25.10;99.90
14053;DHT22;7101;51.600;7.310;2023-07-29T07:46:48;26.70;99.90
14053;DHT22;7101;51.600;7.310;2023-07-29T07:49:15;27.70;99.90
14053;DHT22;7101;51.600;7.310;2023-07-29T07:51:43;28.00;99.90
14053;DHT22;7101;51.600;7.310;2023-07-29T07:54:10;28.50;99.90
14053;DHT22;7101;51.600;7.310;2023-07-29T07:56:39;28.70;99.90
14053;DHT22;7101;51.600;7.310;2023-07-29T07:59:07;28.80;99.90
14053;DHT22;7101;51.600;7.310;2023-07-29T08:01:34;29.10;99.90
14053;DHT22;7101;51.600;7.310;2023-07-29T08:04:02;29.70;99.90
14053;DHT22;7101;51.600;7.310;2023-07-29T08:06:30;30.80;99.90
14053;DHT22;7101;51.600;7.310;2023-07-29T08:08:57;30.30;99.90
14053;DHT22;7101;51.600;7.310;2023-07-29T08:11:24;29.90;97.20
14053;DHT22;7101;51.600;7.310;2023-07-29T08:13:52;30.20;96.60
14053;DHT22;7101;51.600;7.310;2023-07-29T08:16:20;30.10;97.10
14053;DHT22;7101;51.600;7.310;2023-07-29T08:18:47;29.60;98.80
14053;DHT22;7101;51.600;7.310;2023-07-29T08:21:14;28.60;99.90
14053;DHT22;7101;51.600;7.310;2023-07-29T08:23:41;27.70;99.90
14053;DHT22;7101;51.600;7.310;2023-07-29T08:26:08;27.20;99.90
14053;DHT22;7101;51.600;7.310;2023-07-29T08:28:36;26.70;99.90
14053;DHT22;7101;51.600;7.310;2023-07-29T08:31:03;26.90;99.90
14053;DHT22;7101;51.600;7.310;2023-07-29T08:33:32;28.30;99.90
14053;DHT22;7101;51.600;7.310;2023-07-29T08:36:00;29.10;99.90
14053;DHT22;7101;51.600;7.310;2023-07-29T08:38:27;29.90;99.90
14053;DHT22;7101;51.600;7.310;2023-07-29T08:40:58;30.40;99.90
14053;DHT22;7101;51.600;7.310;2023-07-29T08:43:32;30.80;97.50
14053;DHT22;7101;51.600;7.310;2023-07-29T08:46:00;30.70;95.80
14053;DHT22;7101;51.600;7.310;2023-07-29T08:48:36;30.70;92.30
14053;DHT22;7101;51.600;7.310;2023-07-29T08:51:08;30.70;95.10
14053;DHT22;7101;51.600;7.310;2023-07-29T08:53:36;30.70;92.20
14053;DHT22;7101;51.600;7.310;2023-07-29T08:56:03;30.80;99.20
14053;DHT22;7101;51.600;7.310;2023-07-29T08:58:30;30.80;89.80
14053;DHT22;7101;51.600;7.310;2023-07-29T09:00:57;30.80;90.60
14053;DHT22;7101;51.600;7.310;2023-07-29T09:03:24;30.70;89.50
14053;DHT22;7101;51.600;7.310;2023-07-29T09:05:53;31.00;85.40
14053;DHT22;7101;51.600;7.310;2023-07-29T09:08:21;31.30;87.60
14053;DHT22;7101;51.600;7.310;2023-07-29T09:10:49;30.60;86.50
14053;DHT22;7101;51.600;7.310;2023-07-29T09:13:16;29.60;90.20
14053;DHT22;7101;51.600;7.310;2023-07-29T09:15:43;29.10;91.40
14053;DHT22;7101;51.600;7.310;2023-07-29T09:18:11;28.60;93.80
14053;DHT22;7101;51.600;7.310;2023-07-29T09:20:38;28.00;96.60
14053;DHT22;7101;51.600;7.310;2023-07-29T09:23:08;27.40;99.90
14053;DHT22;7101;51.600;7.310;2023-07-29T09:25:37;27.50;99.90
14053;DHT22;7101;51.600;7.310;2023-07-29T09:28:08;28.10;99.90
14053;DHT22;7101;51.600;7.310;2023-07-29T09:30:36;28.60;99.90
14053;DHT22;7101;51.600;7.310;2023-07-29T09:33:02;28.30;96.60
14053;DHT22;7101;51.600;7.310;2023-07-29T09:35:32;27.90;99.90
14053;DHT22;7101;51.600;7.310;2023-07-29T09:37:59;28.10;99.90
14053;DHT22;7101;51.600;7.310;2023-07-29T09:40:27;28.90;99.90
14053;DHT22;7101;51.600;7.310;2023-07-29T09:42:55;29.10;99.60
14053;DHT22;7101;51.600;7.310;2023-07-29T09:45:25;28.80;96.40
14053;DHT22;7101;51.600;7.310;2023-07-29T09:47:54;28.50;98.80
14053;DHT22;7101;51.600;7.310;2023-07-29T09:50:24;28.70;99.40
14053;DHT22;7101;51.600;7.310;2023-07-29T09:52:52;28.30;99.90
14053;DHT22;7101;51.600;7.310;2023-07-29T09:55:21;28.40;99.90
14053;DHT22;7101;51.600;7.310;2023-07-29T09:57:53;28.60;99.90
14053;DHT22;7101;51.600;7.310;2023-07-29T10:00:20;28.50;99.90
14053;DHT22;7101;51.600;7.310;2023-07-29T10:02:48;28.20;99.90
14053;DHT22;7101;51.600;7.310;2023-07-29T10:05:15;28.10;99.90
14053;DHT22;7101;51.600;7.310;2023-07-29T10:07:45;27.50;99.90
14053;DHT22;7101;51.600;7.310;2023-07-29T10:10:13;26.50;99.90
14053;DHT22;7101;51.600;7.310;2023-07-29T10:12:40;26.20;99.90
14053;DHT22;7101;51.600;7.310;2023-07-29T10:15:10;26.30;99.90
14053;DHT22;7101;51.600;7.310;2023-07-29T10:17:38;26.50;99.90
14053;DHT22;7101;51.600;7.310;2023-07-29T10:20:07;26.70;99.90
14053;DHT22;7101;51.600;7.310;2023-07-29T10:22:36;26.60;99.90
14053;DHT22;7101;51.600;7.310;2023-07-29T10:25:05;26.60;99.90
14053;DHT22;7101;51.600;7.310;2023-07-29T10:27:42;27.00;99.90
14053;DHT22;7101;51.600;7.310;2023-07-29T10:30:11;27.20;99.90
14053;DHT22;7101;51.600;7.310;2023-07-29T10:32:42;26.90;99.90
14053;DHT22;7101;51.600;7.310;2023-07-29T10:35:11;26.70;99.90
14053;DHT22;7101;51.600;7.310;2023-07-29T10:37:39;26.50;99.90
14053;DHT22;7101;51.600;7.310;2023-07-29T10:40:11;26.60;99.90
14053;DHT22;7101;51.600;7.310;2023-07-29T10:42:38;26.60;99.90
14053;DHT22;7101;51.600;7.310;2023-07-29T10:45:20;27.20;99.90
14053;DHT22;7101;51.600;7.310;2023-07-29T10:47:48;27.80;99.90
14053;DHT22;7101;51.600;7.310;2023-07-29T10:50:18;27.80;99.90
14053;DHT22;7101;51.600;7.310;2023-07-29T10:52:49;27.70;99.90
14053;DHT22;7101;51.600;7.310;2023-07-29T10:55:25;27.60;99.90
14053;DHT22;7101;51.600;7.310;2023-07-29T10:57:52;27.40;99.90
14053;DHT22;7101;51.600;7.310;2023-07-29T11:00:31;27.40;99.90
14053;DHT22;7101;51.600;7.310;2023-07-29T11:03:00;27.00;99.90
14053;DHT22;7101;51.600;7.310;2023-07-29T11:05:42;27.20;99.90
14053;DHT22;7101;51.600;7.310;2023-07-29T11:08:20;27.00;99.90
14053;DHT22;7101;51.600;7.310;2023-07-29T11:11:05;26.40;99.90
14053;DHT22;7101;51.600;7.310;2023-07-29T11:13:33;25.90;99.90
14053;DHT22;7101;51.600;7.310;2023-07-29T11:16:02;25.80;99.90
14053;DHT22;7101;51.600;7.310;2023-07-29T11:18:30;25.90;99.90
14053;DHT22;7101;51.600;7.310;2023-07-29T11:20:58;26.40;99.90
14053;DHT22;7101;51.600;7.310;2023-07-29T11:23:30;26.80;99.90
14053;DHT22;7101;51.600;7.310;2023-07-29T11:25:57;26.90;99.90
14053;DHT22;7101;51.600;7.310;2023-07-29T11:28:25;27.10;99.90
14053;DHT22;7101;51.600;7.310;2023-07-29T11:30:53;27.70;99.90
14053;DHT22;7101;51.600;7.310;2023-07-29T11:33:23;27.90;99.90
14053;DHT22;7101;51.600;7.310;2023-07-29T11:35:50;28.10;99.90
14053;DHT22;7101;51.600;7.310;2023-07-29T11:38:18;28.20;99.90
14053;DHT22;7101;51.600;7.310;2023-07-29T11:40:54;28.00;99.90
14053;DHT22;7101;51.600;7.310;2023-07-29T11:43:21;27.60;99.90
14053;DHT22;7101;51.600;7.310;2023-07-29T11:45:48;27.40;99.90
14053;DHT22;7101;51.600;7.310;2023-07-29T11:48:17;27.00;99.90
14053;DHT22;7101;51.600;7.310;2023-07-29T11:50:45;26.70;99.90
14053;DHT22;7101;51.600;7.310;2023-07-29T11:53:12;26.60;99.90
14053;DHT22;7101;51.600;7.310;2023-07-29T11:55:39;26.80;99.90
14053;DHT22;7101;51.600;7.310;2023-07-29T11:58:06;26.90;99.90
14053;DHT22;7101;51.600;7.310;2023-07-29T12:00:37;26.80;99.90
14053;DHT22;7101;51.600;7.310;2023-07-29T12:03:04;26.50;99.90
14053;DHT22;7101;51.600;7.310;2023-07-29T12:05:31;26.10;99.90
14053;DHT22;7101;51.600;7.310;2023-07-29T12:08:00;25.60;99.90
14053;DHT22;7101;51.600;7.310;2023-07-29T12:10:27;25.20;99.90
14053;DHT22;7101;51.600;7.310;2023-07-29T12:12:55;25.10;99.90
14053;DHT22;7101;51.600;7.310;2023-07-29T12:15:25;24.90;99.90
14053;DHT22;7101;51.600;7.310;2023-07-29T12:17:54;24.90;99.90
14053;DHT22;7101;51.600;7.310;2023-07-29T12:20:22;25.20;99.90
14053;DHT22;7101;51.600;7.310;2023-07-29T12:22:56;25.60;99.90
14053;DHT22;7101;51.600;7.310;2023-07-29T12:25:26;25.70;99.90
14053;DHT22;7101;51.600;7.310;2023-07-29T12:27:53;25.80;99.90
14053;DHT22;7101;51.600;7.310;2023-07-29T12:30:23;26.00;99.90
14053;DHT22;7101;51.600;7.310;2023-07-29T12:32:51;26.50;99.90
14053;DHT22;7101;51.600;7.310;2023-07-29T12:35:18;26.60;99.90
14053;DHT22;7101;51.600;7.310;2023-07-29T12:37:45;27.00;99.90
14053;DHT22;7101;51.600;7.310;2023-07-29T12:40:22;27.00;99.90
14053;DHT22;7101;51.600;7.310;2023-07-29T12:42:51;26.70;99.90
14053;DHT22;7101;51.600;7.310;2023-07-29T12:45:18;26.60;99.90
14053;DHT22;7101;51.600;7.310;2023-07-29T12:47:48;26.30;99.90
14053;DHT22;7101;51.600;7.310;2023-07-29T12:50:20;26.20;99.90
14053;DHT22;7101;51.600;7.310;2023-07-29T12:52:47;26.30;99.90
14053;DHT22;7101;51.600;7.310;2023-07-29T12:55:14;26.30;99.90
14053;DHT22;7101;51.600;7.310;2023-07-29T12:57:42;26.30;99.90
14053;DHT22;7101;51.600;7.310;2023-07-29T13:00:11;26.30;99.90
14053;DHT22;7101;51.600;7.310;2023-07-29T13:02:38;26.50;99.90
14053;DHT22;7101;51.600;7.310;2023-07-29T13:05:09;26.70;99.90
14053;DHT22;7101;51.600;7.310;2023-07-29T13:07:37;26.90;99.90
14053;DHT22;7101;51.600;7.310;2023-07-29T13:10:04;26.80;99.90
14053;DHT22;7101;51.600;7.310;2023-07-29T13:12:32;27.00;99.90
14053;DHT22;7101;51.600;7.310;2023-07-29T13:14:59;26.90;99.90
14053;DHT22;7101;51.600;7.310;2023-07-29T13:17:27;26.80;99.90
14053;DHT22;7101;51.600;7.310;2023-07-29T13:19:54;27.20;99.90
14053;DHT22;7101;51.600;7.310;2023-07-29T13:22:21;27.40;99.90
14053;DHT22;7101;51.600;7.310;2023-07-29T13:24:48;27.60;99.90
14053;DHT22;7101;51.600;7.310;2023-07-29T13:27:16;27.50;99.90
14053;DHT22;7101;51.600;7.310;2023-07-29T13:29:47;27.30;99.90
14053;DHT22;7101;51.600;7.310;2023-07-29T13:32:14;27.30;99.90
14053;DHT22;7101;51.600;7.310;2023-07-29T13:34:42;27.40;99.90
14053;DHT22;7101;51.600;7.310;2023-07-29T13:37:09;27.60;99.90
14053;DHT22;7101;51.600;7.310;2023-07-29T13:39:36;27.90;99.90
14053;DHT22;7101;51.600;7.310;2023-07-29T13:42:03;27.90;99.90
14053;DHT22;7101;51.600;7.310;2023-07-29T13:44:30;27.60;99.90
14053;DHT22;7101;51.600;7.310;2023-07-29T13:46:57;27.30;99.90
14053;DHT22;7101;51.600;7.310;2023-07-29T13:49:24;26.80;99.90
14053;DHT22;7101;51.600;7.310;2023-07-29T13:51:52;26.30;99.90
14053;DHT22;7101;51.600;7.310;2023-07-29T13:54:19;25.90;99.90
14053;DHT22;7101;51.600;7.310;2023-07-29T13:56:47;25.80;99.90
14053;DHT22;7101;51.600;7.310;2023-07-29T13:59:14;25.50;99.90
14053;DHT22;7101;51.600;7.310;2023-07-29T14:01:40;25.30;99.90
14053;DHT22;7101;51.600;7.310;2023-07-29T14:04:07;25.30;99.90
14053;DHT22;7101;51.600;7.310;2023-07-29T14:06:34;25.20;99.90
14053;DHT22;7101;51.600;7.310;2023-07-29T14:09:02;25.00;99.90
14053;DHT22;7101;51.600;7.310;2023-07-29T14:11:29;24.60;99.90
14053;DHT22;7101;51.600;7.310;2023-07-29T14:13:56;24.40;99.90
14053;DHT22;7101;51.600;7.310;2023-07-29T14:16:23;24.10;99.90
14053;DHT22;7101;51.600;7.310;2023-07-29T14:18:50;23.80;99.90
14053;DHT22;7101;51.600;7.310;2023-07-29T14:21:17;23.20;99.90
14053;DHT22;7101;51.600;7.310;2023-07-29T14:23:44;22.20;99.90
14053;DHT22;7101;51.600;7.310;2023-07-29T14:26:13;21.60;99.90
14053;DHT22;7101;51.600;7.310;2023-07-29T14:28:40;21.00;99.90
14053;DHT22;7101;51.600;7.310;2023-07-29T14:31:06;20.60;99.90
14053;DHT22;7101;51.600;7.310;2023-07-29T14:33:33;19.70;99.90
14053;DHT22;7101;51.600;7.310;2023-07-29T14:36:00;19.10;99.90
14053;DHT22;7101;51.600;7.310;2023-07-29T14:38:29;18.80;99.90
14053;DHT22;7101;51.600;7.310;2023-07-29T14:40:55;18.70;99.90
14053;DHT22;7101;51.600;7.310;2023-07-29T14:43:24;18.60;99.90
14053;DHT22;7101;51.600;7.310;2023-07-29T14:45:51;18.70;99.90
14053;DHT22;7101;51.600;7.310;2023-07-29T14:48:17;18.50;99.90
14053;DHT22;7101;51.600;7.310;2023-07-29T14:50:45;18.30;99.90
14053;DHT22;7101;51.600;7.310;2023-07-29T14:53:12;18.40;99.90
14053;DHT22;7101;51.600;7.310;2023-07-29T14:55:39;18.60;99.90
14053;DHT22;7101;51.600;7.310;2023-07-29T14:58:06;18.70;99.90
14053;DHT22;7101;51.600;7.310;2023-07-29T15:00:35;18.90;99.90
14053;DHT22;7101;51.600;7.310;2023-07-29T15:03:02;19.30;99.90
14053;DHT22;7101;51.600;7.310;2023-07-29T15:05:29;19.80;99.90
14053;DHT22;7101;51.600;7.310;2023-07-29T15:07:56;20.40;99.90
14053;DHT22;7101;51.600;7.310;2023-07-29T15:10:24;20.80;99.90
14053;DHT22;7101;51.600;7.310;2023-07-29T15:12:51;20.80;99.90
14053;DHT22;7101;51.600;7.310;2023-07-29T15:15:18;20.90;99.90
14053;DHT22;7101;51.600;7.310;2023-07-29T15:17:47;21.20;99.90
14053;DHT22;7101;51.600;7.310;2023-07-29T15:20:14;21.60;99.90
14053;DHT22;7101;51.600;7.310;2023-07-29T15:22:40;22.00;99.90
14053;DHT22;7101;51.600;7.310;2023-07-29T15:25:08;22.30;99.90
14053;DHT22;7101;51.600;7.310;2023-07-29T15:27:39;22.40;99.90
14053;DHT22;7101;51.600;7.310;2023-07-29T15:30:06;22.40;99.90
14053;DHT22;7101;51.600;7.310;2023-07-29T15:32:33;22.10;99.90
14053;DHT22;7101;51.600;7.310;2023-07-29T15:35:02;21.70;99.90
14053;DHT22;7101;51.600;7.310;2023-07-29T15:37:29;21.30;99.90
14053;DHT22;7101;51.600;7.310;2023-07-29T15:39:55;21.30;99.90
14053;DHT22;7101;51.600;7.310;2023-07-29T15:42:23;21.00;99.90
14053;DHT22;7101;51.600;7.310;2023-07-29T15:44:50;21.20;99.90
14053;DHT22;7101;51.600;7.310;2023-07-29T15:47:17;21.40;99.90
14053;DHT22;7101;51.600;7.310;2023-07-29T15:49:44;21.70;99.90